Florida, New Mexico
Current Conditions -  °F | °C
As of 7:55 PM on Sunday 23 Nov 2014 (Local Time) from KONM Reporting Station
Clear Clear  
Wind Chill: 35°   Ceiling: Unl
Heat Index: 43°   Visibility: 10mi
Dew Point:   Wind: 20mph
Humidity: 17%   Direction: 320°NW
Pressure: 30.01"   Gusts: 33mph
Location:  33.8946°N, 106.565°W
Report Text: KONM 240255Z AUTO 32017G29KT 10SM CLR 06/M18 A3001 RMK AO2 T00621176
Loading
Personal Weather Stations






























Interactive Weather Map New forecast layout! Learn more

10-Day Weather Forecast

Advertisements
Track Severe Weather on mobile